Upstream stations:
Downstream station:
SHEF ID: IOLK1 NEOSHO RIVER NEAR IOLA
STATION TYPE:
Regulating: Stage = 15.00, Flow = 18228
PRECIP STAGE RIV-FLOW BAT-LOAD
in ft cfs volt
Ccp-Rev Ccp-Rev Ccp-Rev Ccp-Rev
(US/Central)
04/02 00:00 0.00 9.79 7387 12.63
04/02 01:00 0.00 9.74 7175 12.61
04/02 02:00 0.00 9.69 6966 12.60
04/02 03:00 0.00 9.64 6760 12.58
04/02 04:00 0.00 9.53 6316 12.57
04/02 05:00 0.00 9.44 5964 12.54
04/02 06:00 0.00 9.31 5471 12.53
04/02 07:00 0.00 9.20 5070 12.52
04/02 08:00 0.00 9.13 4822 12.51
04/02 09:00 0.00 9.03 4478 13.39
04/02 10:00 0.00 8.93 4153 13.62
04/02 11:00 0.00 8.84 3874 13.55
04/02 12:00 0.00 8.78 3693 13.24
04/02 13:00 0.00 8.71 3486 13.19
04/02 14:00 0.00 8.64 3285 13.16
04/02 15:00 0.00 8.59 3145 13.13
04/02 16:00 0.00 8.55 3035 13.06
04/02 17:00 0.00 8.51 2927 13.03
04/02 18:00 0.00 8.48 2847 13.01
04/02 19:00 0.00 8.45 2768 12.99
04/02 20:00 0.00 8.43 2716 12.80
04/02 21:00 0.00 8.41 2665 12.71
04/02 22:00 0.00 8.40 2639 12.67
04/02 23:00 0.00 8.40 2639 12.63